createdAt,value
2018-08-13T00:01:43.407Z,1.90
2018-08-13T00:04:11.954Z,2.23
2018-08-13T00:06:40.450Z,2.53
2018-08-13T00:09:09.049Z,2.03
2018-08-13T00:11:37.719Z,2.00
2018-08-13T00:14:06.353Z,2.30
2018-08-13T00:16:34.884Z,1.73
2018-08-13T00:19:03.510Z,4.70
2018-08-13T00:21:32.090Z,2.10
2018-08-13T00:24:00.686Z,2.20
2018-08-13T00:26:29.239Z,2.07
2018-08-13T00:28:57.751Z,2.00
2018-08-13T00:31:26.422Z,1.70
2018-08-13T00:33:54.953Z,2.30
2018-08-13T00:36:23.524Z,1.53
2018-08-13T00:38:52.110Z,2.20
2018-08-13T00:41:20.755Z,1.73
2018-08-13T00:43:49.277Z,1.97
2018-08-13T00:46:17.928Z,1.60
2018-08-13T00:48:46.471Z,1.73
2018-08-13T00:51:15.119Z,1.97
2018-08-13T00:53:43.671Z,1.77
2018-08-13T00:56:12.224Z,1.60
2018-08-13T00:58:40.816Z,1.70
2018-08-13T01:01:09.392Z,1.77
2018-08-13T01:03:37.932Z,1.67
2018-08-13T01:06:06.461Z,1.90
2018-08-13T01:08:35.098Z,1.57
2018-08-13T01:11:03.638Z,2.10
2018-08-13T01:13:32.212Z,3.00
2018-08-13T01:16:06.784Z,3.77
2018-08-13T01:18:35.311Z,2.00
2018-08-13T01:21:03.889Z,1.73
2018-08-13T01:23:32.489Z,2.27
2018-08-13T01:26:01.125Z,1.90
2018-08-13T01:28:29.656Z,1.70
2018-08-13T01:30:58.232Z,1.77
2018-08-13T01:33:26.844Z,2.70
2018-08-13T01:35:55.388Z,3.07
2018-08-13T01:38:23.980Z,2.30
2018-08-13T01:40:52.559Z,1.50
2018-08-13T01:43:21.220Z,7.43
2018-08-13T01:45:49.742Z,1.87
2018-08-13T01:48:18.374Z,1.50
2018-08-13T01:50:46.980Z,2.43
2018-08-13T01:53:15.561Z,1.70
2018-08-13T01:55:44.132Z,1.70
2018-08-13T01:58:12.688Z,1.80
2018-08-13T02:00:41.252Z,1.90
2018-08-13T02:03:09.796Z,2.30
2018-08-13T02:05:38.349Z,2.77
2018-08-13T02:08:07.168Z,1.53
2018-08-13T02:10:35.708Z,1.60
2018-08-13T02:13:04.258Z,1.53
2018-08-13T02:15:32.840Z,2.03
2018-08-13T02:18:01.372Z,1.80
2018-08-13T02:20:29.971Z,1.60
2018-08-13T02:22:58.517Z,1.47
2018-08-13T02:25:27.140Z,1.90
2018-08-13T02:27:55.752Z,1.90
2018-08-13T02:30:24.279Z,1.60
2018-08-13T02:32:52.948Z,2.00
2018-08-13T02:35:21.479Z,1.53
2018-08-13T02:37:50.035Z,2.10
2018-08-13T02:40:18.656Z,2.80
2018-08-13T02:42:47.202Z,2.50
2018-08-13T02:45:15.788Z,1.30
2018-08-13T02:47:44.349Z,1.47
2018-08-13T02:50:14.150Z,1.53
2018-08-13T02:52:42.883Z,2.10
2018-08-13T02:55:12.343Z,2.33
2018-08-13T02:57:40.921Z,1.90
2018-08-13T03:00:10.886Z,1.70
2018-08-13T03:02:40.142Z,1.43
2018-08-13T03:05:11.045Z,1.93
2018-08-13T03:07:39.973Z,1.70
2018-08-13T03:10:10.947Z,2.37
2018-08-13T03:12:39.664Z,2.00
2018-08-13T03:15:11.897Z,2.70
2018-08-13T03:17:40.620Z,1.50
2018-08-13T03:20:09.540Z,1.93
2018-08-13T03:22:38.252Z,1.50
2018-08-13T03:25:08.745Z,1.47
2018-08-13T03:27:37.530Z,1.70
2018-08-13T03:30:08.741Z,1.93
2018-08-13T03:32:37.628Z,1.40
2018-08-13T03:35:06.380Z,1.53
2018-08-13T03:37:35.041Z,1.20
2018-08-13T03:40:03.883Z,2.47
2018-08-13T03:42:32.463Z,1.33
2018-08-13T03:45:01.204Z,2.63
2018-08-13T03:47:29.788Z,2.40
2018-08-13T03:49:58.383Z,1.60
2018-08-13T03:52:27.153Z,1.53
2018-08-13T03:54:55.934Z,1.97
2018-08-13T03:57:24.537Z,2.93
2018-08-13T03:59:53.316Z,1.47
2018-08-13T04:02:21.883Z,2.03
2018-08-13T04:04:50.453Z,6.20
2018-08-13T04:07:19.006Z,2.63
2018-08-13T04:09:47.521Z,4.27
2018-08-13T04:12:16.022Z,3.27
2018-08-13T04:14:44.570Z,1.90
2018-08-13T04:17:13.081Z,2.37
2018-08-13T04:19:41.572Z,2.00
2018-08-13T04:22:10.084Z,1.73
2018-08-13T04:24:38.787Z,1.93
2018-08-13T04:27:07.295Z,1.93
2018-08-13T04:29:36.343Z,2.80
2018-08-13T04:32:04.886Z,1.73
2018-08-13T04:34:33.787Z,1.73
2018-08-13T04:37:02.405Z,1.70
2018-08-13T04:39:31.042Z,1.67
2018-08-13T04:41:59.675Z,1.50
2018-08-13T04:44:28.252Z,1.70
2018-08-13T04:46:56.979Z,2.10
2018-08-13T04:49:25.665Z,4.27
2018-08-13T04:51:54.209Z,3.73
2018-08-13T04:54:22.768Z,2.17
2018-08-13T04:56:51.260Z,3.17
2018-08-13T04:59:19.947Z,4.17
2018-08-13T05:01:48.955Z,2.53
2018-08-13T05:04:17.693Z,3.40
2018-08-13T05:06:46.433Z,2.43
2018-08-13T05:09:14.980Z,2.97
2018-08-13T05:11:43.516Z,3.30
2018-08-13T05:14:12.252Z,2.20
2018-08-13T05:16:41.487Z,2.43
2018-08-13T05:19:10.128Z,3.97
2018-08-13T05:21:38.696Z,3.00
2018-08-13T05:24:07.371Z,2.33
2018-08-13T05:26:36.085Z,3.60
2018-08-13T05:29:04.974Z,4.27
2018-08-13T05:31:33.939Z,3.17
2018-08-13T05:34:02.561Z,2.80
2018-08-13T05:36:31.085Z,2.97
2018-08-13T05:38:59.754Z,6.20
2018-08-13T05:41:28.480Z,3.13
2018-08-13T05:43:57.000Z,2.90
2018-08-13T05:46:25.575Z,2.53
2018-08-13T05:48:54.319Z,3.27
2018-08-13T05:51:22.832Z,4.90
2018-08-13T05:53:51.373Z,12.97
2018-08-13T05:56:20.089Z,4.33
2018-08-13T05:58:48.575Z,2.73
2018-08-13T06:01:17.281Z,4.90
2018-08-13T06:03:45.827Z,3.47
2018-08-13T06:06:14.603Z,3.30
2018-08-13T06:08:43.170Z,3.70
2018-08-13T06:11:11.768Z,2.63
2018-08-13T06:13:40.660Z,2.50
2018-08-13T06:16:09.580Z,3.13
2018-08-13T06:18:38.272Z,2.93
2018-08-13T06:21:07.021Z,2.10
2018-08-13T06:23:35.475Z,2.60
2018-08-13T06:26:03.971Z,3.17
2018-08-13T06:28:32.792Z,4.97
2018-08-13T06:31:01.334Z,3.30
2018-08-13T06:33:30.130Z,4.63
2018-08-13T06:35:58.767Z,3.27
2018-08-13T06:38:27.288Z,3.17
2018-08-13T06:40:55.920Z,4.70
2018-08-13T06:43:24.621Z,3.67
2018-08-13T06:45:53.192Z,3.30
2018-08-13T06:48:21.772Z,3.47
2018-08-13T06:50:50.363Z,5.00
2018-08-13T06:53:18.999Z,3.80
2018-08-13T06:55:47.633Z,3.73
2018-08-13T06:58:16.160Z,5.70
2018-08-13T07:00:44.843Z,4.30
2018-08-13T07:03:13.452Z,4.40
2018-08-13T07:05:41.996Z,3.17
2018-08-13T07:08:10.544Z,3.67
2018-08-13T07:10:39.206Z,3.30
2018-08-13T07:13:07.747Z,3.60
2018-08-13T07:15:36.425Z,4.63
2018-08-13T07:18:05.766Z,4.37
2018-08-13T07:20:34.330Z,4.53
2018-08-13T07:23:03.069Z,6.07
2018-08-13T07:25:31.760Z,5.17
2018-08-13T07:28:00.564Z,4.60
2018-08-13T07:30:29.110Z,4.53
2018-08-13T07:32:57.859Z,3.77
2018-08-13T07:35:26.540Z,3.60
2018-08-13T07:37:55.159Z,4.63
2018-08-13T07:40:23.850Z,3.33
2018-08-13T07:42:52.375Z,2.90
2018-08-13T07:45:20.976Z,3.50
2018-08-13T07:47:49.640Z,3.80
2018-08-13T07:50:18.317Z,5.87
2018-08-13T07:52:47.012Z,4.70
2018-08-13T07:55:15.645Z,2.97
2018-08-13T07:57:44.281Z,3.30
2018-08-13T08:00:16.292Z,2.47
2018-08-13T08:02:45.231Z,3.20
2018-08-13T08:05:13.912Z,3.70
2018-08-13T08:07:42.659Z,3.10
2018-08-13T08:10:13.206Z,4.73
2018-08-13T08:12:42.127Z,3.77
2018-08-13T08:15:15.754Z,3.17
2018-08-13T08:17:44.713Z,3.47
2018-08-13T08:20:13.355Z,3.13
2018-08-13T08:22:41.960Z,4.10
2018-08-13T08:25:16.112Z,3.10
2018-08-13T08:27:45.410Z,3.17
2018-08-13T08:30:14.624Z,3.17
2018-08-13T08:32:43.259Z,6.00
2018-08-13T08:35:13.536Z,4.33
2018-08-13T08:37:42.492Z,3.23
2018-08-13T08:40:13.642Z,3.40
2018-08-13T08:42:42.224Z,3.47
2018-08-13T08:45:17.748Z,3.30
2018-08-13T08:47:46.566Z,2.97
2018-08-13T08:50:16.090Z,2.90
2018-08-13T08:52:45.572Z,3.10
2018-08-13T08:55:14.669Z,2.60
2018-08-13T08:57:43.554Z,3.60
2018-08-13T09:00:16.511Z,4.03
2018-08-13T09:02:45.155Z,3.20
2018-08-13T09:05:14.210Z,2.70
2018-08-13T09:07:43.754Z,2.80
2018-08-13T09:10:12.507Z,2.50
2018-08-13T09:12:41.413Z,2.10
2018-08-13T09:15:12.617Z,2.20
2018-08-13T09:17:52.182Z,2.00
2018-08-13T09:20:31.848Z,2.20
2018-08-13T09:23:11.712Z,2.30
2018-08-13T09:25:51.418Z,1.93
2018-08-13T09:28:30.989Z,2.70
2018-08-13T09:33:16.741Z,3.03
2018-08-13T09:35:45.377Z,2.17
2018-08-13T09:38:13.872Z,1.70
2018-08-13T09:40:42.473Z,2.00
2018-08-13T09:43:11.260Z,2.10
2018-08-13T09:45:39.873Z,2.67
2018-08-13T09:48:08.522Z,1.53
2018-08-13T09:50:37.121Z,1.60
2018-08-13T09:53:06.428Z,1.90
2018-08-13T09:55:35.000Z,2.03
2018-08-13T09:58:03.697Z,1.77
2018-08-13T10:00:37.538Z,2.37
2018-08-13T10:03:06.438Z,2.33
2018-08-13T10:05:35.269Z,2.47
2018-08-13T10:08:03.984Z,1.93
2018-08-13T10:10:32.694Z,2.87
2018-08-13T10:13:06.734Z,1.93
2018-08-13T10:15:35.364Z,2.10
2018-08-13T10:18:04.377Z,2.27
2018-08-13T10:20:32.928Z,2.00
2018-08-13T10:23:01.566Z,1.80
2018-08-13T10:25:30.263Z,2.50
2018-08-13T10:27:58.904Z,1.80
2018-08-13T10:30:27.634Z,2.40
2018-08-13T10:32:56.299Z,1.80
2018-08-13T10:35:24.944Z,1.93
2018-08-13T10:37:53.604Z,3.17
2018-08-13T10:40:22.183Z,1.83
2018-08-13T10:42:51.497Z,1.97
2018-08-13T10:45:20.070Z,2.10
2018-08-13T10:47:48.712Z,2.00
2018-08-13T10:50:17.313Z,1.82
2018-08-13T10:52:45.894Z,1.90
2018-08-13T10:55:15.627Z,1.77
2018-08-13T10:57:44.370Z,1.60
2018-08-13T11:00:15.106Z,1.95
2018-08-13T11:02:43.800Z,1.82
2018-08-13T11:05:13.976Z,2.13
2018-08-13T11:07:42.482Z,2.00
2018-08-13T11:10:12.499Z,2.67
2018-08-13T11:12:41.162Z,2.17
2018-08-13T11:15:13.844Z,1.73
2018-08-13T11:17:42.475Z,1.87
2018-08-13T11:20:11.060Z,1.73
2018-08-13T11:22:40.617Z,1.50
2018-08-13T11:25:10.703Z,1.87
2018-08-13T11:27:39.361Z,1.77
2018-08-13T11:30:10.085Z,1.63
2018-08-13T11:32:38.643Z,1.87
2018-08-13T11:35:07.759Z,2.40
2018-08-13T11:37:36.622Z,1.73
2018-08-13T11:40:08.917Z,2.20
2018-08-13T11:42:37.578Z,2.27
2018-08-13T11:45:06.360Z,2.40
2018-08-13T11:47:35.921Z,2.13
2018-08-13T11:50:08.224Z,2.50
2018-08-13T11:52:36.762Z,1.90
2018-08-13T11:55:05.439Z,2.13
2018-08-13T11:57:35.473Z,3.60
2018-08-13T12:00:07.088Z,2.33
2018-08-13T12:02:35.967Z,2.70
2018-08-13T12:05:06.447Z,1.93
2018-08-13T12:07:35.217Z,2.70
2018-08-13T12:10:04.062Z,1.93
2018-08-13T12:12:32.948Z,2.30
2018-08-13T12:15:03.081Z,2.00
2018-08-13T12:17:32.159Z,2.37
2018-08-13T12:20:01.433Z,3.47
2018-08-13T12:22:30.103Z,2.73
2018-08-13T12:24:58.842Z,2.70
2018-08-13T12:27:27.505Z,2.77
2018-08-13T12:29:56.045Z,2.87
2018-08-13T12:32:24.538Z,2.67
2018-08-13T12:34:53.771Z,3.50
2018-08-13T12:37:22.434Z,3.00
2018-08-13T12:39:50.988Z,3.20
2018-08-13T12:42:19.493Z,3.10
2018-08-13T12:44:48.060Z,3.37
2018-08-13T12:47:16.692Z,3.50
2018-08-13T12:49:45.243Z,6.87
2018-08-13T12:52:13.920Z,3.93
2018-08-13T12:54:42.450Z,3.80
2018-08-13T12:57:11.083Z,5.27
2018-08-13T12:59:41.153Z,5.20
2018-08-13T13:02:09.924Z,5.70
2018-08-13T13:04:38.586Z,5.60
2018-08-13T13:07:07.142Z,6.23
2018-08-13T13:09:35.749Z,6.67
2018-08-13T13:12:04.314Z,5.23
2018-08-13T13:14:32.885Z,3.50
2018-08-13T13:17:01.473Z,3.07
2018-08-13T13:19:30.073Z,2.53
2018-08-13T13:21:58.601Z,3.03
2018-08-13T13:24:27.144Z,2.90
2018-08-13T13:26:55.652Z,3.20
2018-08-13T13:29:24.225Z,3.00
2018-08-13T13:31:52.852Z,2.63
2018-08-13T13:34:21.421Z,2.00
2018-08-13T13:36:49.868Z,2.80
2018-08-13T13:39:18.456Z,3.00
2018-08-13T13:41:47.026Z,2.67
2018-08-13T13:44:15.552Z,3.80
2018-08-13T13:46:44.093Z,3.97
2018-08-13T13:49:12.610Z,3.70
2018-08-13T13:51:41.227Z,3.70
2018-08-13T13:54:09.723Z,3.53
2018-08-13T13:56:38.320Z,4.20
2018-08-13T13:59:07.156Z,4.60
2018-08-13T14:01:35.831Z,4.53
2018-08-13T14:04:04.410Z,5.77
2018-08-13T14:06:33.851Z,4.60
2018-08-13T14:09:02.560Z,4.43
2018-08-13T14:11:31.155Z,4.37
2018-08-13T14:13:59.686Z,4.40
2018-08-13T14:16:28.259Z,4.63
2018-08-13T14:18:56.830Z,5.03
2018-08-13T14:21:25.376Z,4.57
2018-08-13T14:23:53.914Z,4.67
2018-08-13T14:26:22.544Z,4.77
2018-08-13T14:28:51.085Z,4.20
2018-08-13T14:31:19.805Z,4.93
2018-08-13T14:33:48.376Z,4.10
2018-08-13T14:36:16.923Z,5.40
2018-08-13T14:38:45.547Z,4.70
2018-08-13T14:41:14.311Z,3.77
2018-08-13T14:43:42.869Z,3.23
2018-08-13T14:46:11.924Z,3.77
2018-08-13T14:48:40.524Z,2.60
2018-08-13T14:51:09.098Z,6.73
2018-08-13T14:53:38.003Z,5.70
2018-08-13T14:56:07.120Z,4.63
2018-08-13T14:58:35.622Z,5.60
2018-08-13T15:01:04.069Z,3.10
2018-08-13T15:03:32.590Z,3.97
2018-08-13T15:06:01.128Z,5.40
2018-08-13T15:08:29.632Z,3.73
2018-08-13T15:10:58.228Z,4.70
2018-08-13T15:13:26.802Z,4.17
2018-08-13T15:15:55.568Z,4.30
2018-08-13T15:18:24.766Z,4.97
2018-08-13T15:20:53.253Z,7.03
2018-08-13T15:23:21.939Z,3.87
2018-08-13T15:25:50.480Z,5.23
2018-08-13T15:28:19.095Z,5.47
2018-08-13T15:30:47.740Z,4.63
2018-08-13T15:33:16.495Z,4.70
2018-08-13T15:35:45.380Z,4.83
2018-08-13T15:38:13.933Z,4.00
2018-08-13T15:40:42.666Z,3.90
2018-08-13T15:43:11.278Z,6.37
2018-08-13T15:45:40.101Z,10.93
2018-08-13T15:48:08.895Z,5.00
2018-08-13T15:50:37.435Z,4.77
2018-08-13T15:53:06.615Z,5.97
2018-08-13T15:55:35.275Z,5.03
2018-08-13T15:58:04.107Z,4.60
2018-08-13T16:00:32.923Z,5.17
2018-08-13T16:03:01.683Z,7.30
2018-08-13T16:05:30.199Z,4.90
2018-08-13T16:07:58.907Z,7.57
2018-08-13T16:10:27.679Z,8.20
2018-08-13T16:12:56.420Z,6.90
2018-08-13T16:15:27.169Z,8.60
2018-08-13T16:17:55.684Z,7.63
2018-08-13T16:20:24.435Z,5.87
2018-08-13T16:22:53.117Z,7.17
2018-08-13T16:25:21.680Z,6.50
2018-08-13T16:27:50.360Z,6.77
2018-08-13T16:30:24.635Z,5.87
2018-08-13T16:32:53.271Z,6.47
2018-08-13T16:35:22.892Z,7.23
2018-08-13T16:37:51.551Z,5.27
2018-08-13T16:40:21.204Z,5.43
2018-08-13T16:42:50.045Z,5.60
2018-08-13T16:45:20.674Z,7.20
2018-08-13T16:47:49.286Z,6.23
2018-08-13T16:50:27.101Z,4.23
2018-08-13T16:52:56.064Z,4.53
2018-08-13T16:55:24.940Z,4.40
2018-08-13T16:57:53.740Z,4.30
2018-08-13T17:00:25.309Z,5.17
2018-08-13T17:02:54.071Z,5.17
2018-08-13T17:05:22.951Z,5.00
2018-08-13T17:07:51.796Z,3.93
2018-08-13T17:10:24.592Z,4.13
2018-08-13T17:12:54.289Z,3.83
2018-08-13T17:15:23.660Z,3.20
2018-08-13T17:17:54.415Z,3.60
2018-08-13T17:20:26.396Z,3.23
2018-08-13T17:22:55.403Z,5.10
2018-08-13T17:25:24.170Z,6.03
2018-08-13T17:27:52.926Z,3.07
2018-08-13T17:30:23.509Z,4.03
2018-08-13T17:32:53.409Z,4.33
2018-08-13T17:35:24.097Z,4.43
2018-08-13T17:37:52.812Z,5.10
2018-08-13T17:40:23.437Z,4.30
2018-08-13T17:42:52.859Z,4.03
2018-08-13T17:45:21.990Z,3.90
2018-08-13T17:47:50.922Z,2.83
2018-08-13T17:50:21.175Z,6.13
2018-08-13T17:52:49.808Z,4.77
2018-08-13T17:55:18.894Z,3.03
2018-08-13T17:57:47.736Z,2.73
2018-08-13T18:00:18.618Z,2.63
2018-08-13T18:02:47.258Z,2.53
2018-08-13T18:05:21.972Z,1.93
2018-08-13T18:07:51.143Z,2.43
2018-08-13T18:10:25.009Z,2.20
2018-08-13T18:13:02.495Z,2.90
2018-08-13T18:15:31.721Z,3.57
2018-08-13T18:18:00.454Z,2.30
2018-08-13T18:20:29.212Z,2.60
2018-08-13T18:22:57.943Z,3.77
2018-08-13T18:25:26.577Z,4.13
2018-08-13T18:27:55.228Z,9.00
2018-08-13T18:30:26.765Z,2.20
2018-08-13T18:32:55.720Z,2.40
2018-08-13T18:35:24.621Z,2.70
2018-08-13T18:37:53.325Z,2.73
2018-08-13T18:40:27.857Z,5.83
2018-08-13T18:42:56.696Z,2.73
2018-08-13T18:45:25.550Z,2.60
2018-08-13T18:47:54.664Z,2.50
2018-08-13T18:50:23.714Z,2.77
2018-08-13T18:52:52.644Z,3.13
2018-08-13T18:55:22.765Z,2.70
2018-08-13T18:57:51.687Z,4.13
2018-08-13T19:00:28.629Z,2.60
2018-08-13T19:02:58.160Z,2.70
2018-08-13T19:05:26.833Z,3.20
2018-08-13T19:07:55.477Z,2.77
2018-08-13T19:10:24.045Z,3.90
2018-08-13T19:12:52.715Z,2.40
2018-08-13T19:15:24.625Z,5.90
2018-08-13T19:17:53.692Z,2.90
2018-08-13T19:20:22.274Z,2.90
2018-08-13T19:22:51.145Z,4.40
2018-08-13T19:25:22.599Z,7.43
2018-08-13T19:27:51.204Z,3.33
2018-08-13T19:30:20.955Z,2.57
2018-08-13T19:32:50.767Z,2.07
2018-08-13T19:35:19.476Z,2.53
2018-08-13T19:37:48.372Z,2.07
2018-08-13T19:40:19.124Z,1.93
2018-08-13T19:42:49.204Z,2.40
2018-08-13T19:45:18.664Z,2.13
2018-08-13T19:47:47.750Z,2.50
2018-08-13T19:50:17.045Z,2.27
2018-08-13T19:52:47.335Z,2.00
2018-08-13T19:55:16.455Z,1.70
2018-08-13T19:57:45.148Z,4.40
2018-08-13T20:00:24.216Z,1.60
2018-08-13T20:02:53.294Z,1.93
2018-08-13T20:05:23.658Z,1.90
2018-08-13T20:07:53.008Z,1.40
2018-08-13T20:10:21.672Z,2.43
2018-08-13T20:12:50.445Z,5.63
2018-08-13T20:15:19.068Z,2.03
2018-08-13T20:17:48.538Z,1.73
2018-08-13T20:20:18.557Z,2.40
2018-08-13T20:22:47.878Z,2.00
2018-08-13T20:25:17.665Z,3.30
2018-08-13T20:27:46.693Z,2.10
2018-08-13T20:30:17.741Z,1.50
2018-08-13T20:32:49.677Z,1.70
2018-08-13T20:38:09.143Z,1.60
2018-08-13T20:40:37.973Z,1.47
2018-08-13T20:43:06.918Z,1.80
2018-08-13T20:45:35.587Z,1.30
2018-08-13T20:48:04.457Z,3.10
2018-08-13T20:50:33.426Z,2.53
2018-08-13T20:53:01.989Z,2.90
2018-08-13T20:55:30.655Z,1.67
2018-08-13T20:57:59.404Z,3.20
2018-08-13T21:00:29.694Z,2.00
2018-08-13T21:02:58.369Z,2.80
2018-08-13T21:05:27.100Z,3.17
2018-08-13T21:07:55.736Z,1.90
2018-08-13T21:10:25.221Z,3.03
2018-08-13T21:12:54.070Z,1.77
2018-08-13T21:15:23.888Z,2.90
2018-08-13T21:17:52.509Z,2.90
2018-08-13T21:20:23.471Z,2.50
2018-08-13T21:22:52.169Z,2.73
2018-08-13T21:25:20.896Z,3.47
2018-08-13T21:27:49.536Z,3.60
2018-08-13T21:30:18.138Z,2.40
2018-08-13T21:32:47.056Z,2.30
2018-08-13T21:35:17.939Z,3.47
2018-08-13T21:37:46.787Z,2.83
2018-08-13T21:40:15.757Z,2.53
2018-08-13T21:42:44.767Z,2.27
2018-08-13T21:45:13.709Z,2.40
2018-08-13T21:47:42.423Z,5.17
2018-08-13T21:50:14.182Z,2.70
2018-08-13T21:52:42.847Z,2.40
2018-08-13T21:55:11.527Z,2.00
2018-08-13T21:57:40.188Z,1.80
2018-08-13T22:00:20.421Z,2.20
2018-08-13T22:02:49.256Z,1.93
2018-08-13T22:05:17.784Z,2.33
2018-08-13T22:07:46.481Z,1.83
2018-08-13T22:10:15.101Z,2.20
2018-08-13T22:12:43.755Z,4.27
2018-08-13T22:15:22.318Z,1.80
2018-08-13T22:17:50.871Z,2.57
2018-08-13T22:20:19.489Z,2.37
2018-08-13T22:22:48.319Z,2.77
2018-08-13T22:25:49.428Z,2.30
2018-08-13T22:28:18.783Z,2.87
2018-08-13T22:30:48.550Z,2.30
2018-08-13T22:33:17.172Z,2.83
2018-08-13T22:35:45.739Z,2.80
2018-08-13T22:38:14.347Z,3.30
2018-08-13T22:40:43.033Z,3.47
2018-08-13T22:43:11.577Z,3.30
2018-08-13T22:45:40.088Z,2.97
2018-08-13T22:48:08.664Z,3.73
2018-08-13T22:50:37.320Z,2.70
2018-08-13T22:53:05.891Z,2.80
2018-08-13T22:55:35.128Z,3.03
2018-08-13T22:58:03.707Z,3.20
2018-08-13T23:00:32.296Z,3.37
2018-08-13T23:17:12.663Z,3.13
2018-08-13T23:19:41.257Z,4.03
2018-08-13T23:22:09.894Z,4.50
2018-08-13T23:24:38.539Z,4.13
2018-08-13T23:27:07.233Z,4.37
2018-08-13T23:29:36.160Z,4.53
2018-08-13T23:32:04.813Z,5.17
2018-08-13T23:34:33.397Z,4.87
2018-08-13T23:37:02.056Z,5.40
2018-08-13T23:39:30.683Z,5.30
2018-08-13T23:41:59.384Z,5.60
2018-08-13T23:44:27.906Z,5.60
2018-08-13T23:46:56.694Z,6.47
2018-08-13T23:49:25.405Z,6.37
2018-08-13T23:51:54.213Z,6.03
2018-08-13T23:54:22.874Z,7.40
2018-08-13T23:56:51.682Z,7.43
2018-08-13T23:59:20.332Z,8.80
